CAL7875 ZGGG-RCKH
Flight info
| Callsign | CAL7875 |
|---|---|
| Flight time | 1h 1m |
| Altitude | 24600 |
| Route | VIBOS9 VIBOS R473 SIERA/N0470F390 DCT MULET DCT SKATE DCT CONGA V631 ENVAR M750 DADON G581 PORCH |
| Aircraft | A333/H-SDE1E2E3FGHIJ3J5M1P2RWY/LB1D1 |
Departure
| Time | 2026-04-27 07:38 |
|---|---|
| Airport | Guangzhou Baiyun International Airport (ZGGG) |
Arrival
| Time | 2026-04-27 08:39 |
|---|---|
| Airport | Kaohsiung International Airport (RCKH) |
| Time | Latitude | Longitude | Altitude | Speed | Heading |
|---|---|---|---|---|---|
| 2026-04-27 07:17 | 23.39154 | 113.30446 | 58 ft | 0 kts | 156° |
| 2026-04-27 07:18 | 23.39131 | 113.30457 | 58 ft | 0 kts | 156° |
| 2026-04-27 07:18 | 23.39139 | 113.30453 | 50 ft | 3 kts | 156° |
| 2026-04-27 07:19 | 23.39165 | 113.30456 | 51 ft | 5 kts | 242° |
| 2026-04-27 07:19 | 23.39168 | 113.30463 | 58 ft | 0 kts | 241° |
| 2026-04-27 07:29 | 23.39176 | 113.30478 | 50 ft | 2 kts | 241° |
| 2026-04-27 07:29 | 23.39184 | 113.30493 | 50 ft | 2 kts | 241° |
| 2026-04-27 07:30 | 23.39191 | 113.30509 | 56 ft | 2 kts | 246° |
| 2026-04-27 07:30 | 23.39197 | 113.30525 | 50 ft | 2 kts | 246° |
| 2026-04-27 07:30 | 23.39202 | 113.30542 | 58 ft | 2 kts | 271° |
| 2026-04-27 07:30 | 23.39195 | 113.30560 | 50 ft | 3 kts | 324° |
| 2026-04-27 07:31 | 23.39170 | 113.30567 | 52 ft | 4 kts | 14° |
| 2026-04-27 07:31 | 23.39166 | 113.30566 | 58 ft | 0 kts | 14° |
| 2026-04-27 07:32 | 23.39191 | 113.30577 | 51 ft | 7 kts | 27° |
| 2026-04-27 07:32 | 23.39217 | 113.30639 | 58 ft | 12 kts | 85° |
| 2026-04-27 07:33 | 23.39270 | 113.30695 | 55 ft | 12 kts | 19° |
| 2026-04-27 07:33 | 23.39362 | 113.30722 | 54 ft | 16 kts | 14° |
| 2026-04-27 07:33 | 23.39472 | 113.30753 | 51 ft | 16 kts | 14° |
| 2026-04-27 07:33 | 23.39583 | 113.30781 | 54 ft | 16 kts | 13° |
| 2026-04-27 07:34 | 23.39692 | 113.30810 | 52 ft | 16 kts | 13° |
| 2026-04-27 07:34 | 23.39801 | 113.30839 | 51 ft | 16 kts | 14° |
| 2026-04-27 07:34 | 23.39909 | 113.30871 | 52 ft | 16 kts | 15° |
| 2026-04-27 07:34 | 23.39980 | 113.30890 | 54 ft | 16 kts | 13° |
| 2026-04-27 07:35 | 23.40087 | 113.30917 | 54 ft | 16 kts | 12° |
| 2026-04-27 07:35 | 23.40195 | 113.30944 | 52 ft | 16 kts | 13° |
| 2026-04-27 07:35 | 23.40301 | 113.30972 | 54 ft | 16 kts | 13° |
| 2026-04-27 07:35 | 23.40397 | 113.31018 | 53 ft | 15 kts | 52° |
| 2026-04-27 07:36 | 23.40396 | 113.31119 | 54 ft | 14 kts | 104° |
| 2026-04-27 07:36 | 23.40371 | 113.31223 | 54 ft | 15 kts | 105° |
| 2026-04-27 07:36 | 23.40313 | 113.31273 | 50 ft | 11 kts | 178° |
| 2026-04-27 07:36 | 23.40215 | 113.31250 | 54 ft | 19 kts | 194° |
| 2026-04-27 07:37 | 23.39923 | 113.31171 | 56 ft | 71 kts | 194° |
| 2026-04-27 07:37 | 23.39280 | 113.30998 | 55 ft | 119 kts | 194° |
| 2026-04-27 07:37 | 23.38341 | 113.30747 | 53 ft | 158 kts | 193° |
| 2026-04-27 07:37 | 23.37205 | 113.30436 | 323 ft | 171 kts | 193° |
| 2026-04-27 07:38 | 23.36069 | 113.30124 | 873 ft | 165 kts | 192° |
| 2026-04-27 07:38 | 23.34954 | 113.29825 | 1289 ft | 167 kts | 192° |
| 2026-04-27 07:38 | 23.33814 | 113.29519 | 1695 ft | 173 kts | 192° |
| 2026-04-27 07:38 | 23.32586 | 113.29191 | 1890 ft | 192 kts | 192° |
| 2026-04-27 07:39 | 23.31218 | 113.28826 | 2065 ft | 213 kts | 192° |
| 2026-04-27 07:39 | 23.29700 | 113.28518 | 2325 ft | 229 kts | 184° |
| 2026-04-27 07:39 | 23.28099 | 113.28440 | 2794 ft | 232 kts | 180° |
| 2026-04-27 07:39 | 23.26482 | 113.28424 | 3369 ft | 233 kts | 179° |
| 2026-04-27 07:40 | 23.24843 | 113.28414 | 3955 ft | 240 kts | 179° |
| 2026-04-27 07:40 | 23.23124 | 113.28403 | 4408 ft | 254 kts | 180° |
| 2026-04-27 07:40 | 23.21346 | 113.28389 | 5108 ft | 257 kts | 180° |
| 2026-04-27 07:40 | 23.19540 | 113.28362 | 5795 ft | 261 kts | 184° |
| 2026-04-27 07:41 | 23.17729 | 113.28099 | 6439 ft | 267 kts | 191° |
| 2026-04-27 07:41 | 23.15895 | 113.27672 | 7110 ft | 270 kts | 193° |
| 2026-04-27 07:41 | 23.14053 | 113.27216 | 7833 ft | 273 kts | 193° |
| 2026-04-27 07:41 | 23.12197 | 113.26757 | 8572 ft | 275 kts | 194° |
| 2026-04-27 07:42 | 23.10323 | 113.26295 | 9315 ft | 278 kts | 194° |
| 2026-04-27 07:42 | 23.08431 | 113.25832 | 10017 ft | 281 kts | 194° |
| 2026-04-27 07:42 | 23.06473 | 113.25353 | 10362 ft | 297 kts | 194° |
| 2026-04-27 07:42 | 23.04386 | 113.24844 | 10601 ft | 316 kts | 194° |
| 2026-04-27 07:43 | 23.02207 | 113.24314 | 10837 ft | 334 kts | 193° |
| 2026-04-27 07:43 | 22.99820 | 113.23973 | 11059 ft | 352 kts | 181° |
| 2026-04-27 07:43 | 22.97343 | 113.24312 | 11419 ft | 363 kts | 171° |
| 2026-04-27 07:43 | 22.94857 | 113.24900 | 11916 ft | 368 kts | 169° |
| 2026-04-27 07:44 | 22.92345 | 113.25526 | 12459 ft | 372 kts | 169° |
| 2026-04-27 07:44 | 22.89820 | 113.26152 | 13008 ft | 374 kts | 169° |
| 2026-04-27 07:44 | 22.87268 | 113.26779 | 13545 ft | 378 kts | 169° |
| 2026-04-27 07:44 | 22.84694 | 113.27406 | 14016 ft | 381 kts | 169° |
| 2026-04-27 07:45 | 22.82097 | 113.28036 | 14445 ft | 384 kts | 169° |
| 2026-04-27 07:45 | 22.79473 | 113.28670 | 14870 ft | 388 kts | 170° |
| 2026-04-27 07:45 | 22.76862 | 113.29300 | 15296 ft | 391 kts | 170° |
| 2026-04-27 07:45 | 22.74198 | 113.29943 | 15731 ft | 394 kts | 170° |
| 2026-04-27 07:46 | 22.71509 | 113.30591 | 16164 ft | 397 kts | 170° |
| 2026-04-27 07:46 | 22.68803 | 113.31244 | 16596 ft | 400 kts | 170° |
| 2026-04-27 07:46 | 22.66068 | 113.31902 | 17011 ft | 404 kts | 170° |
| 2026-04-27 07:46 | 22.63321 | 113.32574 | 17427 ft | 407 kts | 169° |
| 2026-04-27 07:47 | 22.60573 | 113.33370 | 17844 ft | 411 kts | 167° |
| 2026-04-27 07:47 | 22.57821 | 113.34273 | 18248 ft | 414 kts | 165° |
| 2026-04-27 07:47 | 22.55075 | 113.35227 | 18604 ft | 417 kts | 165° |
| 2026-04-27 07:47 | 22.52307 | 113.36209 | 18939 ft | 420 kts | 165° |
| 2026-04-27 07:48 | 22.49526 | 113.37197 | 19289 ft | 422 kts | 165° |
| 2026-04-27 07:48 | 22.46729 | 113.38184 | 19643 ft | 424 kts | 165° |
| 2026-04-27 07:48 | 22.43912 | 113.39168 | 19985 ft | 426 kts | 165° |
| 2026-04-27 07:48 | 22.41083 | 113.40149 | 20313 ft | 429 kts | 165° |
| 2026-04-27 07:49 | 22.38229 | 113.41135 | 20650 ft | 431 kts | 166° |
| 2026-04-27 07:49 | 22.35358 | 113.42123 | 20974 ft | 434 kts | 166° |
| 2026-04-27 07:49 | 22.32477 | 113.43114 | 21294 ft | 436 kts | 166° |
| 2026-04-27 07:49 | 22.29579 | 113.44110 | 21655 ft | 438 kts | 166° |
| 2026-04-27 07:50 | 22.26676 | 113.45109 | 21986 ft | 440 kts | 166° |
| 2026-04-27 07:50 | 22.23743 | 113.46118 | 22324 ft | 442 kts | 166° |
| 2026-04-27 07:50 | 22.20811 | 113.47143 | 22644 ft | 445 kts | 165° |
| 2026-04-27 07:50 | 22.17868 | 113.48205 | 22972 ft | 447 kts | 165° |
| 2026-04-27 07:51 | 22.14918 | 113.49288 | 23287 ft | 450 kts | 165° |
| 2026-04-27 07:51 | 22.11949 | 113.50384 | 23583 ft | 452 kts | 165° |
| 2026-04-27 07:51 | 22.08963 | 113.51487 | 23848 ft | 454 kts | 165° |
| 2026-04-27 07:51 | 22.05963 | 113.52592 | 24115 ft | 456 kts | 165° |
| 2026-04-27 07:52 | 22.02954 | 113.53697 | 24381 ft | 458 kts | 165° |
| 2026-04-27 07:52 | 21.99940 | 113.54838 | 24657 ft | 462 kts | 162° |
| 2026-04-27 07:52 | 21.97019 | 113.56320 | 24863 ft | 467 kts | 157° |
| 2026-04-27 07:52 | 21.94121 | 113.57958 | 24902 ft | 474 kts | 155° |
| 2026-04-27 07:53 | 21.91224 | 113.59684 | 24908 ft | 476 kts | 155° |
| 2026-04-27 07:53 | 21.88347 | 113.61445 | 24916 ft | 477 kts | 154° |
| 2026-04-27 07:53 | 21.85471 | 113.63224 | 24918 ft | 476 kts | 154° |
| 2026-04-27 07:53 | 21.82636 | 113.64978 | 24915 ft | 476 kts | 154° |
| 2026-04-27 07:54 | 21.79767 | 113.66744 | 25070 ft | 475 kts | 154° |
| 2026-04-27 07:54 | 21.76900 | 113.68503 | 25455 ft | 473 kts | 154° |
| 2026-04-27 07:54 | 21.74037 | 113.70254 | 25759 ft | 474 kts | 154° |
| 2026-04-27 07:54 | 21.71167 | 113.72002 | 26016 ft | 475 kts | 154° |
| 2026-04-27 07:55 | 21.68282 | 113.73757 | 26262 ft | 477 kts | 154° |
| 2026-04-27 07:55 | 21.65402 | 113.75549 | 26494 ft | 481 kts | 150° |
| 2026-04-27 07:55 | 21.62748 | 113.77762 | 26745 ft | 488 kts | 140° |
| 2026-04-27 07:55 | 21.60506 | 113.80552 | 26875 ft | 500 kts | 127° |
| 2026-04-27 07:56 | 21.58909 | 113.83899 | 27055 ft | 509 kts | 112° |
| 2026-04-27 07:56 | 21.58116 | 113.87618 | 27295 ft | 515 kts | 98° |
| 2026-04-27 07:56 | 21.57777 | 113.91461 | 27520 ft | 518 kts | 95° |
| 2026-04-27 07:56 | 21.57609 | 113.95331 | 27731 ft | 520 kts | 93° |
| 2026-04-27 07:57 | 21.57519 | 113.99225 | 27941 ft | 522 kts | 92° |
| 2026-04-27 07:57 | 21.57448 | 114.03130 | 28150 ft | 524 kts | 92° |
| 2026-04-27 07:57 | 21.57365 | 114.07050 | 28349 ft | 526 kts | 92° |
| 2026-04-27 07:57 | 21.57261 | 114.10994 | 28452 ft | 530 kts | 93° |
| 2026-04-27 07:58 | 21.57137 | 114.14958 | 28633 ft | 532 kts | 93° |
| 2026-04-27 07:58 | 21.56999 | 114.18931 | 28895 ft | 532 kts | 93° |
| 2026-04-27 07:58 | 21.56854 | 114.22886 | 29366 ft | 528 kts | 93° |
| 2026-04-27 07:58 | 21.56705 | 114.26829 | 29571 ft | 529 kts | 93° |
| 2026-04-27 07:59 | 21.56554 | 114.30784 | 29775 ft | 530 kts | 93° |
| 2026-04-27 07:59 | 21.56251 | 114.38701 | 30236 ft | 531 kts | 93° |
| 2026-04-27 07:59 | 21.56099 | 114.42667 | 30381 ft | 532 kts | 93° |
| 2026-04-27 08:00 | 21.55946 | 114.46640 | 30564 ft | 533 kts | 93° |
| 2026-04-27 08:00 | 21.55792 | 114.50620 | 30797 ft | 533 kts | 93° |
| 2026-04-27 08:00 | 21.55638 | 114.54591 | 31034 ft | 532 kts | 93° |
| 2026-04-27 08:00 | 21.55606 | 114.58568 | 31231 ft | 533 kts | 87° |
| 2026-04-27 08:01 | 21.55992 | 114.62523 | 31459 ft | 533 kts | 83° |
| 2026-04-27 08:01 | 21.56519 | 114.66466 | 31696 ft | 532 kts | 81° |
| 2026-04-27 08:01 | 21.57110 | 114.70385 | 31913 ft | 532 kts | 80° |
| 2026-04-27 08:01 | 21.57736 | 114.74307 | 32144 ft | 532 kts | 80° |
| 2026-04-27 08:02 | 21.58374 | 114.78222 | 32368 ft | 532 kts | 80° |
| 2026-04-27 08:02 | 21.59012 | 114.82137 | 32590 ft | 532 kts | 80° |
| 2026-04-27 08:02 | 21.59644 | 114.86051 | 32830 ft | 532 kts | 80° |
| 2026-04-27 08:02 | 21.60270 | 114.89964 | 33054 ft | 532 kts | 80° |
| 2026-04-27 08:03 | 21.60891 | 114.93875 | 33284 ft | 531 kts | 80° |
| 2026-04-27 08:03 | 21.61510 | 114.97796 | 33505 ft | 531 kts | 80° |
| 2026-04-27 08:03 | 21.62125 | 115.01710 | 33710 ft | 531 kts | 80° |
| 2026-04-27 08:03 | 21.62740 | 115.05634 | 33752 ft | 535 kts | 80° |
| 2026-04-27 08:04 | 21.63358 | 115.09584 | 33905 ft | 536 kts | 80° |
| 2026-04-27 08:04 | 21.63977 | 115.13540 | 34106 ft | 536 kts | 80° |
| 2026-04-27 08:04 | 21.64593 | 115.17486 | 34297 ft | 535 kts | 80° |
| 2026-04-27 08:04 | 21.65208 | 115.21432 | 34480 ft | 536 kts | 80° |
| 2026-04-27 08:05 | 21.65824 | 115.25385 | 34639 ft | 536 kts | 80° |
| 2026-04-27 08:05 | 21.66437 | 115.29328 | 34826 ft | 535 kts | 80° |
| 2026-04-27 08:05 | 21.67042 | 115.33228 | 34991 ft | 536 kts | 80° |
| 2026-04-27 08:05 | 21.67663 | 115.37233 | 35122 ft | 537 kts | 79° |
| 2026-04-27 08:06 | 21.68274 | 115.41187 | 35364 ft | 535 kts | 80° |
| 2026-04-27 08:06 | 21.68874 | 115.45068 | 35677 ft | 531 kts | 80° |
| 2026-04-27 08:06 | 21.69477 | 115.48984 | 35845 ft | 531 kts | 80° |
| 2026-04-27 08:06 | 21.70089 | 115.52955 | 35961 ft | 532 kts | 80° |
| 2026-04-27 08:07 | 21.70685 | 115.56834 | 36085 ft | 533 kts | 80° |
| 2026-04-27 08:07 | 21.71289 | 115.60767 | 36224 ft | 533 kts | 80° |
| 2026-04-27 08:07 | 21.71892 | 115.64704 | 36351 ft | 534 kts | 79° |
| 2026-04-27 08:07 | 21.72495 | 115.68644 | 36410 ft | 536 kts | 79° |
| 2026-04-27 08:08 | 21.73099 | 115.72602 | 36525 ft | 537 kts | 79° |
| 2026-04-27 08:08 | 21.73703 | 115.76559 | 36675 ft | 536 kts | 79° |
| 2026-04-27 08:08 | 21.74306 | 115.80525 | 36822 ft | 536 kts | 79° |
| 2026-04-27 08:08 | 21.74908 | 115.84483 | 36923 ft | 537 kts | 79° |
| 2026-04-27 08:09 | 21.76116 | 115.92451 | 36926 ft | 543 kts | 79° |
| 2026-04-27 08:09 | 21.77335 | 116.00519 | 36920 ft | 549 kts | 79° |
| 2026-04-27 08:10 | 21.78563 | 116.08670 | 36924 ft | 555 kts | 79° |
| 2026-04-27 08:10 | 21.79796 | 116.16886 | 36924 ft | 556 kts | 79° |
| 2026-04-27 08:11 | 21.81021 | 116.25087 | 36924 ft | 555 kts | 79° |
| 2026-04-27 08:11 | 21.82243 | 116.33292 | 36932 ft | 556 kts | 79° |
| 2026-04-27 08:12 | 21.83462 | 116.41497 | 36927 ft | 555 kts | 79° |
| 2026-04-27 08:12 | 21.84674 | 116.49692 | 36925 ft | 554 kts | 79° |
| 2026-04-27 08:13 | 21.85883 | 116.57889 | 36922 ft | 554 kts | 79° |
| 2026-04-27 08:13 | 21.87089 | 116.66094 | 36929 ft | 555 kts | 79° |
| 2026-04-27 08:14 | 21.88289 | 116.74290 | 36924 ft | 555 kts | 79° |
| 2026-04-27 08:14 | 21.89485 | 116.82489 | 36922 ft | 555 kts | 79° |
| 2026-04-27 08:15 | 21.90678 | 116.90697 | 36916 ft | 554 kts | 79° |
| 2026-04-27 08:15 | 21.91866 | 116.98901 | 36924 ft | 554 kts | 79° |
| 2026-04-27 08:16 | 21.93050 | 117.07102 | 36925 ft | 554 kts | 79° |
| 2026-04-27 08:16 | 21.94230 | 117.15304 | 36924 ft | 554 kts | 79° |
| 2026-04-27 08:17 | 21.95405 | 117.23506 | 36937 ft | 554 kts | 79° |
| 2026-04-27 08:17 | 21.97627 | 117.39096 | 36925 ft | 553 kts | 79° |
| 2026-04-27 08:18 | 22.01243 | 117.54826 | 36927 ft | 521 kts | 51° |
| 2026-04-27 08:18 | 22.11283 | 117.65276 | 36938 ft | 507 kts | 42° |
| 2026-04-27 08:18 | 22.14102 | 117.69984 | 36934 ft | 525 kts | 65° |
| 2026-04-27 08:18 | 22.15269 | 117.73726 | 36933 ft | 530 kts | 70° |
| 2026-04-27 08:19 | 22.17641 | 117.81245 | 36934 ft | 527 kts | 64° |
| 2026-04-27 08:19 | 22.21070 | 117.88728 | 36941 ft | 522 kts | 56° |
| 2026-04-27 08:20 | 22.25444 | 117.97287 | 36936 ft | 526 kts | 65° |
| 2026-04-27 08:20 | 22.26849 | 118.03383 | 36939 ft | 531 kts | 84° |
| 2026-04-27 08:20 | 22.26856 | 118.07369 | 36941 ft | 532 kts | 92° |
| 2026-04-27 08:21 | 22.26146 | 118.15340 | 36941 ft | 534 kts | 97° |
| 2026-04-27 08:21 | 22.22447 | 118.45786 | 36941 ft | 535 kts | 97° |
| 2026-04-27 08:22 | 22.20233 | 118.64669 | 36785 ft | 537 kts | 97° |
| 2026-04-27 08:22 | 22.19756 | 118.68712 | 36536 ft | 535 kts | 97° |
| 2026-04-27 08:22 | 22.19286 | 118.72691 | 36279 ft | 534 kts | 97° |
| 2026-04-27 08:23 | 22.18822 | 118.76609 | 36032 ft | 533 kts | 97° |
| 2026-04-27 08:23 | 22.17579 | 118.87059 | 34698 ft | 540 kts | 98° |
| 2026-04-27 08:23 | 22.15628 | 119.03324 | 30711 ft | 546 kts | 98° |
| 2026-04-27 08:23 | 22.13707 | 119.19196 | 27483 ft | 494 kts | 99° |
| 2026-04-27 08:24 | 22.12026 | 119.33007 | 24949 ft | 459 kts | 100° |
| 2026-04-27 08:24 | 22.10350 | 119.46616 | 22246 ft | 447 kts | 100° |
| 2026-04-27 08:24 | 22.08783 | 119.59335 | 19842 ft | 419 kts | 99° |
| 2026-04-27 08:24 | 22.07239 | 119.71711 | 17298 ft | 406 kts | 99° |
| 2026-04-27 08:25 | 22.05788 | 119.83281 | 15057 ft | 385 kts | 99° |
| 2026-04-27 08:25 | 22.04366 | 119.94850 | 12605 ft | 390 kts | 95° |
| 2026-04-27 08:25 | 22.05209 | 120.00688 | 11556 ft | 383 kts | 60° |
| 2026-04-27 08:25 | 22.06902 | 120.02812 | 11441 ft | 367 kts | 38° |
| 2026-04-27 08:26 | 22.08908 | 120.04404 | 11372 ft | 348 kts | 36° |
| 2026-04-27 08:26 | 22.10786 | 120.05917 | 11263 ft | 325 kts | 38° |
| 2026-04-27 08:26 | 22.12479 | 120.07399 | 11120 ft | 304 kts | 40° |
| 2026-04-27 08:26 | 22.14033 | 120.08851 | 10939 ft | 288 kts | 41° |
| 2026-04-27 08:27 | 22.15503 | 120.10285 | 10767 ft | 286 kts | 42° |
| 2026-04-27 08:27 | 22.16962 | 120.11751 | 10683 ft | 287 kts | 43° |
| 2026-04-27 08:27 | 22.18413 | 120.13235 | 10559 ft | 287 kts | 43° |
| 2026-04-27 08:27 | 22.19865 | 120.14734 | 10163 ft | 291 kts | 43° |
| 2026-04-27 08:28 | 22.21334 | 120.16259 | 9751 ft | 296 kts | 44° |
| 2026-04-27 08:28 | 22.22823 | 120.17811 | 9314 ft | 298 kts | 44° |
| 2026-04-27 08:28 | 22.24286 | 120.19404 | 8931 ft | 300 kts | 50° |
| 2026-04-27 08:28 | 22.25479 | 120.21256 | 8487 ft | 301 kts | 59° |
| 2026-04-27 08:29 | 22.26520 | 120.23199 | 7995 ft | 297 kts | 60° |
| 2026-04-27 08:29 | 22.27529 | 120.25124 | 7512 ft | 293 kts | 60° |
| 2026-04-27 08:29 | 22.28530 | 120.27034 | 7041 ft | 292 kts | 61° |
| 2026-04-27 08:29 | 22.29533 | 120.28946 | 6572 ft | 292 kts | 60° |
| 2026-04-27 08:30 | 22.30528 | 120.30838 | 6095 ft | 287 kts | 60° |
| 2026-04-27 08:30 | 22.31722 | 120.32535 | 5708 ft | 279 kts | 45° |
| 2026-04-27 08:30 | 22.33123 | 120.33905 | 5486 ft | 266 kts | 40° |
| 2026-04-27 08:30 | 22.34532 | 120.35149 | 5196 ft | 265 kts | 39° |
| 2026-04-27 08:31 | 22.36001 | 120.36398 | 4848 ft | 266 kts | 39° |
| 2026-04-27 08:31 | 22.37441 | 120.37600 | 4539 ft | 262 kts | 39° |
| 2026-04-27 08:31 | 22.38860 | 120.38774 | 4227 ft | 252 kts | 39° |
| 2026-04-27 08:31 | 22.40227 | 120.39901 | 3967 ft | 245 kts | 39° |
| 2026-04-27 08:32 | 22.41579 | 120.41015 | 3709 ft | 243 kts | 38° |
| 2026-04-27 08:32 | 22.42889 | 120.42091 | 3470 ft | 230 kts | 38° |
| 2026-04-27 08:32 | 22.44144 | 120.43122 | 3148 ft | 224 kts | 39° |
| 2026-04-27 08:32 | 22.45366 | 120.44127 | 2851 ft | 218 kts | 39° |
| 2026-04-27 08:33 | 22.46568 | 120.45116 | 2600 ft | 215 kts | 38° |
| 2026-04-27 08:33 | 22.47732 | 120.46073 | 2345 ft | 206 kts | 39° |
| 2026-04-27 08:33 | 22.48872 | 120.47010 | 2109 ft | 204 kts | 37° |
| 2026-04-27 08:33 | 22.49969 | 120.47913 | 2026 ft | 191 kts | 37° |
| 2026-04-27 08:34 | 22.50996 | 120.48759 | 2023 ft | 181 kts | 37° |
| 2026-04-27 08:34 | 22.52006 | 120.49555 | 2022 ft | 180 kts | 32° |
| 2026-04-27 08:34 | 22.53039 | 120.50321 | 2014 ft | 181 kts | 42° |
| 2026-04-27 08:34 | 22.53939 | 120.51269 | 2014 ft | 181 kts | 43° |
| 2026-04-27 08:35 | 22.54980 | 120.51984 | 1993 ft | 175 kts | 12° |
| 2026-04-27 08:35 | 22.56151 | 120.51943 | 2003 ft | 169 kts | 334° |
| 2026-04-27 08:35 | 22.56889 | 120.51023 | 2024 ft | 165 kts | 293° |
| 2026-04-27 08:35 | 22.57206 | 120.49830 | 2017 ft | 166 kts | 276° |
| 2026-04-27 08:36 | 22.57270 | 120.48582 | 2014 ft | 167 kts | 270° |
| 2026-04-27 08:36 | 22.57323 | 120.47329 | 1986 ft | 167 kts | 271° |
| 2026-04-27 08:36 | 22.57367 | 120.46080 | 1791 ft | 163 kts | 271° |
| 2026-04-27 08:36 | 22.57406 | 120.44899 | 1597 ft | 152 kts | 271° |
| 2026-04-27 08:37 | 22.57442 | 120.43776 | 1416 ft | 147 kts | 271° |
| 2026-04-27 08:37 | 22.57475 | 120.42674 | 1235 ft | 144 kts | 271° |
| 2026-04-27 08:37 | 22.57508 | 120.41587 | 1047 ft | 145 kts | 271° |
| 2026-04-27 08:37 | 22.57542 | 120.40495 | 848 ft | 146 kts | 271° |
| 2026-04-27 08:38 | 22.57575 | 120.39405 | 662 ft | 142 kts | 271° |
| 2026-04-27 08:38 | 22.57609 | 120.38350 | 477 ft | 140 kts | 272° |
| 2026-04-27 08:38 | 22.57639 | 120.37296 | 279 ft | 140 kts | 270° |
| 2026-04-27 08:38 | 22.57670 | 120.36251 | 103 ft | 138 kts | 271° |
| 2026-04-27 08:39 | 22.57701 | 120.35235 | 42 ft | 122 kts | 272° |
| 2026-04-27 08:39 | 22.57722 | 120.34530 | 42 ft | 65 kts | 272° |
| 2026-04-27 08:39 | 22.57731 | 120.34200 | 43 ft | 21 kts | 268° |
| 2026-04-27 08:39 | 22.57650 | 120.34127 | 42 ft | 15 kts | 184° |
| 2026-04-27 08:40 | 22.57545 | 120.34123 | 42 ft | 15 kts | 181° |
| 2026-04-27 08:40 | 22.57439 | 120.34126 | 42 ft | 14 kts | 158° |
| 2026-04-27 08:40 | 22.57413 | 120.34178 | 42 ft | 3 kts | 92° |
| 2026-04-27 08:40 | 22.57420 | 120.34200 | 42 ft | 2 kts | 56° |
| 2026-04-27 08:41 | 22.57428 | 120.34202 | 42 ft | 1 kts | 18° |
| 2026-04-27 08:41 | 22.57434 | 120.34201 | 42 ft | 2 kts | 1° |
| 2026-04-27 08:41 | 22.57454 | 120.34202 | 46 ft | 4 kts | 2° |
| 2026-04-27 08:41 | 22.57484 | 120.34203 | 42 ft | 0 kts | 2° |